createdAt,value
2019-05-30T00:00:47.007Z,89.36
2019-05-30T00:03:16.247Z,89.11
2019-05-30T00:05:45.342Z,88.97
2019-05-30T00:08:14.432Z,88.28
2019-05-30T00:10:43.533Z,89.37
2019-05-30T00:13:12.763Z,89.54
2019-05-30T00:15:41.890Z,89.73
2019-05-30T00:18:10.987Z,89.29
2019-05-30T00:20:40.110Z,91.51
2019-05-30T00:23:09.356Z,92.14
2019-05-30T00:25:38.466Z,92.70
2019-05-30T00:28:07.640Z,91.04
2019-05-30T00:30:37.012Z,89.82
2019-05-30T00:33:07.055Z,89.14
2019-05-30T00:35:36.289Z,89.24
2019-05-30T00:38:06.128Z,90.02
2019-05-30T00:40:35.296Z,90.90
2019-05-30T00:43:04.436Z,90.27
2019-05-30T00:45:33.605Z,90.64
2019-05-30T00:48:04.018Z,89.65
2019-05-30T00:50:33.502Z,89.25
2019-05-30T00:53:02.934Z,88.24
2019-05-30T00:55:32.188Z,88.65
2019-05-30T00:58:02.654Z,88.48
2019-05-30T01:00:43.007Z,88.23
2019-05-30T01:03:04.803Z,88.33
2019-05-30T01:05:33.589Z,88.36
2019-05-30T01:08:03.306Z,88.55
2019-05-30T01:10:32.520Z,88.40
2019-05-30T01:13:03.017Z,89.13
2019-05-30T01:15:32.488Z,88.89
2019-05-30T01:18:01.623Z,89.01
2019-05-30T01:20:31.551Z,90.19
2019-05-30T01:23:01.307Z,91.14
2019-05-30T01:25:30.520Z,90.52
2019-05-30T01:28:01.614Z,90.43
2019-05-30T01:30:30.741Z,92.07
2019-05-30T01:32:59.866Z,92.00
2019-05-30T01:35:29.029Z,92.14
2019-05-30T01:37:59.575Z,91.88
2019-05-30T01:40:37.843Z,91.04
2019-05-30T01:43:08.275Z,90.78
2019-05-30T01:45:39.217Z,89.94
2019-05-30T01:48:08.670Z,93.47
2019-05-30T01:50:37.850Z,93.08
2019-05-30T01:53:07.094Z,93.20
2019-05-30T01:55:36.261Z,91.62
2019-05-30T01:58:05.360Z,91.41
2019-05-30T02:00:38.997Z,92.38
2019-05-30T02:03:09.577Z,92.64
2019-05-30T02:05:38.846Z,92.45
2019-05-30T02:08:09.880Z,93.57
2019-05-30T02:10:38.991Z,93.18
2019-05-30T02:13:11.159Z,93.09
2019-05-30T02:15:40.337Z,92.45
2019-05-30T02:18:09.985Z,90.95
2019-05-30T02:20:39.334Z,89.99
2019-05-30T02:23:09.941Z,90.09
2019-05-30T02:25:39.501Z,89.30
2019-05-30T02:28:08.636Z,89.55
2019-05-30T02:30:37.867Z,88.54
2019-05-30T02:33:07.925Z,88.62
2019-05-30T02:35:37.853Z,88.78
2019-05-30T02:38:07.524Z,88.47
2019-05-30T02:40:37.865Z,88.15
2019-05-30T02:43:07.568Z,87.63
2019-05-30T02:45:37.370Z,88.13
2019-05-30T02:48:07.389Z,87.74
2019-05-30T02:50:36.615Z,89.47
2019-05-30T02:53:06.445Z,90.25
2019-05-30T02:55:36.604Z,89.52
2019-05-30T02:58:06.616Z,89.35
2019-05-30T03:00:37.171Z,88.20
2019-05-30T03:03:09.805Z,88.08
2019-05-30T03:05:38.314Z,89.18
2019-05-30T03:08:10.926Z,89.48
2019-05-30T03:10:38.396Z,87.91
2019-05-30T03:13:10.608Z,90.66
2019-05-30T03:15:39.435Z,92.27
2019-05-30T03:18:10.340Z,91.97
2019-05-30T03:20:39.484Z,91.39
2019-05-30T03:23:10.484Z,90.73
2019-05-30T03:25:40.559Z,89.73
2019-05-30T03:28:11.936Z,88.06
2019-05-30T03:30:40.621Z,88.11
2019-05-30T03:33:32.958Z,87.87
2019-05-30T03:35:43.936Z,88.59
2019-05-30T03:38:15.397Z,89.00
2019-05-30T03:40:43.681Z,88.20
2019-05-30T03:43:15.985Z,88.81
2019-05-30T03:45:45.080Z,87.97
2019-05-30T03:48:16.113Z,88.84
2019-05-30T03:50:49.168Z,89.63
2019-05-30T03:53:18.312Z,89.70
2019-05-30T03:55:50.105Z,89.99
2019-05-30T03:58:27.564Z,90.36
2019-05-30T04:00:57.132Z,90.40
2019-05-30T04:04:06.637Z,90.66
2019-05-30T04:06:37.956Z,89.62
2019-05-30T04:09:09.922Z,88.94
2019-05-30T04:11:45.847Z,88.83
2019-05-30T04:14:19.187Z,88.48
2019-05-30T04:16:48.494Z,87.12
2019-05-30T04:19:19.750Z,87.96
2019-05-30T04:21:49.696Z,87.31
2019-05-30T04:24:19.753Z,87.26
2019-05-30T04:26:49.164Z,87.96
2019-05-30T04:29:18.996Z,86.64
2019-05-30T04:31:48.227Z,85.75
2019-05-30T04:34:19.402Z,86.14
2019-05-30T04:36:52.948Z,85.90
2019-05-30T04:39:19.307Z,85.96
2019-05-30T04:41:49.808Z,86.09
2019-05-30T04:44:20.375Z,84.34
2019-05-30T04:46:49.759Z,82.82
2019-05-30T04:49:21.106Z,84.24
2019-05-30T04:51:51.433Z,83.40
2019-05-30T04:54:21.483Z,84.28
2019-05-30T04:56:50.783Z,84.76
2019-05-30T04:59:21.670Z,80.83
2019-05-30T05:01:52.165Z,79.60
2019-05-30T05:04:21.755Z,80.74
2019-05-30T05:06:51.129Z,83.45
2019-05-30T05:09:20.418Z,82.24
2019-05-30T05:11:49.945Z,84.98
2019-05-30T05:14:20.441Z,81.90
2019-05-30T05:16:49.685Z,83.19
2019-05-30T05:19:19.577Z,82.15
2019-05-30T05:21:48.894Z,81.20
2019-05-30T05:24:19.350Z,79.93
2019-05-30T05:26:48.553Z,78.05
2019-05-30T05:29:18.002Z,81.77
2019-05-30T05:31:47.166Z,77.68
2019-05-30T05:34:16.631Z,80.84
2019-05-30T05:36:45.844Z,80.97
2019-05-30T05:39:16.146Z,81.10
2019-05-30T05:41:45.245Z,79.99
2019-05-30T05:44:14.485Z,79.32
2019-05-30T05:46:43.590Z,76.82
2019-05-30T05:49:12.756Z,75.87
2019-05-30T05:51:41.860Z,79.10
2019-05-30T05:54:10.948Z,78.21
2019-05-30T05:56:40.107Z,78.92
2019-05-30T05:59:09.342Z,79.59
2019-05-30T06:01:38.457Z,77.78
2019-05-30T06:04:13.324Z,77.33
2019-05-30T06:06:38.314Z,78.74
2019-05-30T06:09:07.600Z,78.10
2019-05-30T06:11:36.703Z,76.84
2019-05-30T06:14:05.832Z,77.60
2019-05-30T06:16:34.939Z,75.58
2019-05-30T06:19:04.131Z,76.36
2019-05-30T06:21:33.189Z,75.96
2019-05-30T06:24:02.362Z,75.21
2019-05-30T06:26:31.522Z,76.67
2019-05-30T06:29:00.726Z,76.63
2019-05-30T06:31:29.815Z,74.93
2019-05-30T06:33:58.924Z,75.62
2019-05-30T06:36:29.242Z,77.50
2019-05-30T06:38:58.523Z,77.77
2019-05-30T06:41:27.789Z,73.89
2019-05-30T06:43:56.907Z,73.29
2019-05-30T06:46:26.232Z,74.26
2019-05-30T06:48:55.409Z,74.68
2019-05-30T06:51:24.845Z,72.40
2019-05-30T06:53:53.994Z,71.50
2019-05-30T06:56:23.308Z,72.94
2019-05-30T06:58:52.371Z,74.31
2019-05-30T07:01:22.052Z,72.41
2019-05-30T07:03:51.462Z,73.08
2019-05-30T07:06:21.178Z,74.85
2019-05-30T07:08:51.610Z,72.20
2019-05-30T07:11:20.755Z,70.41
2019-05-30T07:13:49.879Z,70.12
2019-05-30T07:16:20.186Z,69.63
2019-05-30T07:18:49.297Z,68.86
2019-05-30T07:21:18.446Z,70.11
2019-05-30T07:23:47.546Z,69.39
2019-05-30T07:26:16.654Z,68.04
2019-05-30T07:28:45.769Z,69.94
2019-05-30T07:31:14.905Z,68.55
2019-05-30T07:33:44.211Z,67.73
2019-05-30T07:36:13.423Z,66.13
2019-05-30T07:38:42.467Z,66.16
2019-05-30T07:41:11.680Z,68.33
2019-05-30T07:43:40.808Z,67.82
2019-05-30T07:46:10.038Z,66.04
2019-05-30T07:48:39.174Z,65.47
2019-05-30T07:51:08.329Z,64.23
2019-05-30T07:53:37.493Z,64.06
2019-05-30T07:56:06.960Z,66.59
2019-05-30T07:58:36.039Z,65.54
2019-05-30T08:01:05.334Z,64.05
2019-05-30T08:03:34.792Z,62.81
2019-05-30T08:06:04.087Z,62.52
2019-05-30T08:08:33.914Z,64.36
2019-05-30T08:11:09.654Z,61.57
2019-05-30T08:13:35.220Z,61.49
2019-05-30T08:16:05.652Z,60.17
2019-05-30T08:18:35.852Z,59.34
2019-05-30T08:21:05.236Z,56.29
2019-05-30T08:23:34.872Z,54.60
2019-05-30T08:26:04.259Z,55.75
2019-05-30T08:28:34.296Z,55.07
2019-05-30T08:31:03.495Z,53.96
2019-05-30T08:33:33.586Z,56.98
2019-05-30T08:36:05.472Z,53.54
2019-05-30T08:38:33.775Z,54.67
2019-05-30T08:41:02.933Z,52.08
2019-05-30T08:43:32.042Z,55.76
2019-05-30T08:46:02.216Z,52.24
2019-05-30T08:48:32.790Z,51.62
2019-05-30T08:51:02.328Z,48.53
2019-05-30T08:53:32.624Z,47.96
2019-05-30T08:56:01.862Z,49.42
2019-05-30T08:58:30.981Z,51.83
2019-05-30T09:01:00.315Z,47.62
2019-05-30T09:03:29.461Z,47.78
2019-05-30T09:06:03.719Z,49.66
2019-05-30T09:08:29.465Z,52.06
2019-05-30T09:10:58.642Z,50.33
2019-05-30T09:13:27.811Z,54.19
2019-05-30T09:15:56.932Z,51.99
2019-05-30T09:18:26.111Z,50.46
2019-05-30T09:20:55.268Z,46.99
2019-05-30T09:23:24.424Z,49.77
2019-05-30T09:25:53.536Z,49.79
2019-05-30T09:28:22.678Z,50.70
2019-05-30T09:30:51.852Z,51.11
2019-05-30T09:33:21.011Z,45.56
2019-05-30T09:35:50.182Z,47.42
2019-05-30T09:38:19.321Z,43.08
2019-05-30T09:40:49.547Z,43.08
2019-05-30T09:43:18.719Z,43.98
2019-05-30T09:45:48.094Z,45.81
2019-05-30T09:48:17.142Z,43.67
2019-05-30T09:50:46.845Z,45.02
2019-05-30T09:53:15.999Z,46.19
2019-05-30T09:55:46.208Z,44.81
2019-05-30T09:58:15.455Z,46.58
2019-05-30T10:00:45.442Z,46.15
2019-05-30T10:03:15.451Z,47.34
2019-05-30T10:05:45.119Z,48.79
2019-05-30T10:08:14.811Z,49.18
2019-05-30T10:10:45.637Z,44.59
2019-05-30T10:13:14.946Z,44.22
2019-05-30T10:15:45.344Z,42.79
2019-05-30T10:18:14.811Z,41.92
2019-05-30T10:20:44.655Z,41.92
2019-05-30T10:23:14.934Z,40.55
2019-05-30T10:25:44.943Z,39.59
2019-05-30T10:28:14.981Z,39.99
2019-05-30T10:30:45.368Z,39.00
2019-05-30T10:33:15.027Z,39.34
2019-05-30T10:35:45.647Z,42.17
2019-05-30T10:38:15.180Z,41.85
2019-05-30T10:40:44.277Z,41.88
2019-05-30T10:43:13.467Z,42.93
2019-05-30T10:45:42.716Z,42.71
2019-05-30T10:48:11.850Z,42.26
2019-05-30T10:50:41.018Z,43.53
2019-05-30T10:53:10.203Z,43.53
2019-05-30T10:55:39.416Z,43.95
2019-05-30T10:58:08.543Z,43.95
2019-05-30T11:00:53.708Z,44.46
2019-05-30T11:03:26.649Z,44.88
2019-05-30T11:06:23.901Z,45.21
2019-05-30T11:08:53.297Z,45.01
2019-05-30T11:11:22.417Z,45.62
2019-05-30T11:13:53.293Z,44.80
2019-05-30T11:16:23.808Z,46.58
2019-05-30T11:18:54.403Z,45.20
2019-05-30T11:21:23.796Z,45.73
2019-05-30T11:23:54.314Z,45.87
2019-05-30T11:26:24.031Z,43.90
2019-05-30T11:28:53.207Z,44.60
2019-05-30T11:31:22.238Z,43.93
2019-05-30T11:33:51.384Z,42.63
2019-05-30T11:36:20.449Z,41.43
2019-05-30T11:38:49.508Z,43.19
2019-05-30T11:41:18.596Z,45.40
2019-05-30T11:43:47.751Z,45.40
2019-05-30T11:46:18.816Z,44.08
2019-05-30T11:48:47.870Z,47.48
2019-05-30T11:51:16.945Z,46.45
2019-05-30T11:53:46.029Z,48.34
2019-05-30T11:56:15.151Z,48.19
2019-05-30T11:58:44.232Z,48.06
2019-05-30T12:01:13.342Z,49.39
2019-05-30T12:03:42.399Z,48.24
2019-05-30T12:06:11.498Z,48.73
2019-05-30T12:08:40.586Z,49.62
2019-05-30T12:11:09.673Z,49.64
2019-05-30T12:13:38.779Z,48.84
2019-05-30T12:16:07.908Z,51.00
2019-05-30T12:18:37.032Z,50.12
2019-05-30T12:21:06.985Z,48.52
2019-05-30T12:23:36.042Z,49.27
2019-05-30T12:26:05.201Z,48.95
2019-05-30T12:28:34.333Z,46.86
2019-05-30T12:31:06.481Z,46.66
2019-05-30T12:33:34.161Z,46.53
2019-05-30T12:36:03.228Z,45.65
2019-05-30T12:38:32.609Z,46.16
2019-05-30T12:41:02.911Z,46.71
2019-05-30T12:43:32.048Z,48.31
2019-05-30T12:46:01.299Z,44.90
2019-05-30T12:48:30.398Z,45.45
2019-05-30T12:50:59.470Z,45.11
2019-05-30T12:53:28.528Z,43.11
2019-05-30T12:55:58.496Z,43.67
2019-05-30T12:58:27.595Z,40.74
2019-05-30T13:00:56.714Z,41.69
2019-05-30T13:03:25.797Z,42.67
2019-05-30T13:05:55.146Z,42.73
2019-05-30T13:08:24.217Z,44.53
2019-05-30T13:10:53.274Z,46.05
2019-05-30T13:13:22.299Z,46.33
2019-05-30T13:15:51.445Z,46.06
2019-05-30T13:18:20.533Z,47.22
2019-05-30T13:23:17.529Z,46.61
2019-05-30T13:25:46.604Z,46.61
2019-05-30T13:28:15.646Z,46.71
2019-05-30T13:30:44.748Z,46.18
2019-05-30T13:33:13.781Z,45.83
2019-05-30T13:35:42.859Z,46.12
2019-05-30T13:38:25.676Z,45.50
2019-05-30T13:40:42.684Z,45.27
2019-05-30T13:43:11.992Z,44.08
2019-05-30T13:45:41.136Z,45.03
2019-05-30T13:48:10.699Z,43.08
2019-05-30T13:50:39.795Z,46.46
2019-05-30T13:53:09.349Z,47.11
2019-05-30T13:55:38.551Z,49.70
2019-05-30T13:58:07.850Z,49.47
2019-05-30T14:00:36.941Z,50.18
2019-05-30T14:03:06.531Z,48.89
2019-05-30T14:05:35.650Z,48.70
2019-05-30T14:08:06.470Z,48.89
2019-05-30T14:10:35.541Z,49.30
2019-05-30T14:13:04.616Z,49.75
2019-05-30T14:15:33.708Z,49.02
2019-05-30T14:18:07.145Z,47.47
2019-05-30T14:20:36.408Z,49.41
2019-05-30T14:23:05.549Z,50.08
2019-05-30T14:25:35.995Z,50.52
2019-05-30T14:28:05.660Z,50.60
2019-05-30T14:30:34.845Z,51.18
2019-05-30T14:33:04.179Z,52.16
2019-05-30T14:35:33.292Z,53.42
2019-05-30T14:38:02.546Z,52.07
2019-05-30T14:40:31.610Z,52.25
2019-05-30T14:43:00.687Z,52.55
2019-05-30T14:45:29.832Z,53.80
2019-05-30T14:47:59.204Z,53.88
2019-05-30T14:50:28.333Z,52.99
2019-05-30T14:52:57.441Z,53.91
2019-05-30T14:55:26.491Z,54.15
2019-05-30T14:57:58.110Z,54.37
2019-05-30T15:00:26.381Z,55.80
2019-05-30T15:02:55.886Z,56.42
2019-05-30T15:05:25.007Z,55.59
2019-05-30T15:07:54.235Z,56.31
2019-05-30T15:10:23.331Z,55.39
2019-05-30T15:12:52.659Z,54.72
2019-05-30T15:15:21.723Z,54.66
2019-05-30T15:17:51.120Z,54.75
2019-05-30T15:20:20.275Z,55.18
2019-05-30T15:22:49.822Z,56.18
2019-05-30T15:25:19.033Z,56.02
2019-05-30T15:27:48.260Z,55.64
2019-05-30T15:30:17.336Z,56.80
2019-05-30T15:32:46.517Z,56.62
2019-05-30T15:35:16.110Z,57.22
2019-05-30T15:37:46.372Z,55.70
2019-05-30T15:40:15.434Z,55.99
2019-05-30T15:42:44.544Z,56.44
2019-05-30T15:45:14.001Z,56.00
2019-05-30T15:47:43.190Z,57.32
2019-05-30T15:50:14.153Z,57.42
2019-05-30T15:52:43.624Z,56.35
2019-05-30T15:55:13.619Z,58.15
2019-05-30T15:57:42.683Z,57.26
2019-05-30T16:00:12.233Z,56.99
2019-05-30T16:02:41.515Z,58.14
2019-05-30T16:05:10.692Z,58.81
2019-05-30T16:07:39.745Z,57.86
2019-05-30T16:10:21.055Z,57.29
2019-05-30T16:13:02.006Z,57.70
2019-05-30T16:15:31.542Z,57.55
2019-05-30T16:18:00.708Z,57.73
2019-05-30T16:20:29.775Z,57.83
2019-05-30T16:22:58.895Z,59.40
2019-05-30T16:25:27.924Z,59.81
2019-05-30T16:27:57.065Z,59.12
2019-05-30T16:30:27.122Z,57.92
2019-05-30T16:32:56.247Z,58.84
2019-05-30T16:35:26.499Z,59.67
2019-05-30T16:37:55.670Z,59.39
2019-05-30T16:40:24.671Z,59.64
2019-05-30T16:42:53.720Z,59.86
2019-05-30T16:45:25.179Z,60.23
2019-05-30T16:47:53.564Z,61.38
2019-05-30T16:50:24.581Z,62.79
2019-05-30T16:52:53.731Z,61.80
2019-05-30T16:55:23.561Z,60.77
2019-05-30T16:57:52.683Z,61.59
2019-05-30T17:00:21.923Z,61.58
2019-05-30T17:02:51.022Z,61.56
2019-05-30T17:05:20.192Z,61.19
2019-05-30T17:07:49.318Z,60.99
2019-05-30T17:10:27.513Z,61.48
2019-05-30T17:12:49.289Z,61.66
2019-05-30T17:15:19.894Z,60.45
2019-05-30T17:17:49.028Z,60.03
2019-05-30T17:20:18.466Z,60.66
2019-05-30T17:22:47.617Z,60.92
2019-05-30T17:25:17.091Z,61.34
2019-05-30T17:27:46.183Z,62.00
2019-05-30T17:30:15.363Z,62.49
2019-05-30T17:32:44.410Z,62.75
2019-05-30T17:35:13.495Z,62.80
2019-05-30T17:37:42.496Z,62.90
2019-05-30T17:40:11.596Z,63.30
2019-05-30T17:42:40.747Z,63.03
2019-05-30T17:45:10.110Z,63.80
2019-05-30T17:47:39.349Z,64.32
2019-05-30T17:50:08.461Z,63.97
2019-05-30T17:52:37.487Z,64.58
2019-05-30T17:55:06.712Z,65.07
2019-05-30T17:57:35.841Z,64.70
2019-05-30T18:00:05.172Z,64.81
2019-05-30T18:02:34.246Z,65.41
2019-05-30T18:05:03.330Z,66.12
2019-05-30T18:07:32.407Z,65.69
2019-05-30T18:10:01.507Z,66.63
2019-05-30T18:12:31.218Z,66.41
2019-05-30T18:15:00.403Z,66.69
2019-05-30T18:17:29.438Z,66.75
2019-05-30T18:19:58.526Z,67.16
2019-05-30T18:22:27.692Z,67.45
2019-05-30T18:24:56.789Z,68.08
2019-05-30T18:27:25.934Z,67.15
2019-05-30T18:29:55.017Z,67.30
2019-05-30T18:32:24.189Z,67.49
2019-05-30T18:34:57.245Z,68.14
2019-05-30T18:37:24.534Z,68.32
2019-05-30T18:39:53.691Z,68.58
2019-05-30T18:42:23.173Z,68.98
2019-05-30T18:44:52.303Z,69.50
2019-05-30T18:47:22.878Z,69.24
2019-05-30T18:49:52.006Z,70.00
2019-05-30T18:52:21.317Z,69.75
2019-05-30T18:54:50.452Z,70.17
2019-05-30T18:57:19.573Z,70.80
2019-05-30T18:59:48.611Z,70.99
2019-05-30T19:02:18.629Z,71.71
2019-05-30T19:04:47.668Z,72.23
2019-05-30T19:07:16.730Z,71.97
2019-05-30T19:09:46.399Z,72.58
2019-05-30T19:12:15.501Z,74.89
2019-05-30T19:14:44.570Z,75.50
2019-05-30T19:17:13.735Z,74.65
2019-05-30T19:19:42.871Z,75.09
2019-05-30T19:22:14.261Z,75.49
2019-05-30T19:24:44.061Z,75.26
2019-05-30T19:27:13.156Z,76.12
2019-05-30T19:29:42.261Z,76.42
2019-05-30T19:32:11.345Z,76.99
2019-05-30T19:34:40.466Z,76.85
2019-05-30T19:37:09.516Z,76.77
2019-05-30T19:39:38.532Z,77.12
2019-05-30T19:42:07.602Z,77.95
2019-05-30T19:44:41.080Z,78.15
2019-05-30T19:47:07.519Z,77.38
2019-05-30T19:49:36.981Z,77.49
2019-05-30T19:52:06.137Z,77.28
2019-05-30T19:54:35.227Z,78.85
2019-05-30T19:57:04.232Z,80.89
2019-05-30T19:59:33.799Z,81.86
2019-05-30T20:02:02.886Z,81.70
2019-05-30T20:04:32.216Z,81.91
2019-05-30T20:07:01.345Z,81.69
2019-05-30T20:09:30.495Z,81.22
2019-05-30T20:12:03.733Z,80.46
2019-05-30T20:14:30.961Z,81.10
2019-05-30T20:17:00.007Z,82.41
2019-05-30T20:19:29.062Z,82.50
2019-05-30T20:21:58.145Z,81.90
2019-05-30T20:24:27.203Z,81.13
2019-05-30T20:26:56.267Z,80.73
2019-05-30T20:29:25.410Z,83.57
2019-05-30T20:31:54.516Z,83.20
2019-05-30T20:34:23.531Z,83.37
2019-05-30T20:36:52.580Z,83.86
2019-05-30T20:39:21.666Z,84.28
2019-05-30T20:41:53.890Z,83.83
2019-05-30T20:44:21.555Z,82.84
2019-05-30T20:46:50.909Z,83.57
2019-05-30T20:49:19.942Z,83.42
2019-05-30T20:51:49.065Z,83.95
2019-05-30T20:54:18.090Z,83.79
2019-05-30T20:56:49.722Z,84.27
2019-05-30T20:59:18.028Z,84.65
2019-05-30T21:01:47.154Z,85.18
2019-05-30T21:04:16.241Z,85.11
2019-05-30T21:06:45.439Z,86.08
2019-05-30T21:09:28.326Z,84.92
2019-05-30T21:11:46.537Z,84.21
2019-05-30T21:14:15.796Z,83.88
2019-05-30T21:16:45.934Z,84.75
2019-05-30T21:19:16.168Z,84.93
2019-05-30T21:21:46.171Z,84.36
2019-05-30T21:24:15.428Z,84.89
2019-05-30T21:26:44.855Z,85.15
2019-05-30T21:29:13.989Z,85.17
2019-05-30T21:31:43.506Z,86.29
2019-05-30T21:34:13.014Z,86.87
2019-05-30T21:36:42.188Z,87.38
2019-05-30T21:39:11.318Z,87.78
2019-05-30T21:41:40.415Z,87.06
2019-05-30T21:44:09.538Z,86.81
2019-05-30T21:46:38.708Z,88.15
2019-05-30T21:49:07.806Z,88.56
2019-05-30T21:51:36.868Z,88.34
2019-05-30T21:54:06.008Z,87.49
2019-05-30T21:56:35.087Z,86.49
2019-05-30T21:59:04.358Z,87.06
2019-05-30T22:01:34.314Z,86.63
2019-05-30T22:04:03.746Z,86.75
2019-05-30T22:06:32.863Z,86.75
2019-05-30T22:09:03.521Z,86.75
2019-05-30T22:11:33.420Z,86.90
2019-05-30T22:14:02.501Z,86.95
2019-05-30T22:16:31.551Z,87.65
2019-05-30T22:19:00.722Z,87.41
2019-05-30T22:21:29.812Z,87.70
2019-05-30T22:23:58.863Z,87.55
2019-05-30T22:26:27.907Z,88.27
2019-05-30T22:28:57.064Z,88.76
2019-05-30T22:31:26.213Z,88.82
2019-05-30T22:33:55.455Z,88.40
2019-05-30T22:36:24.550Z,88.10
2019-05-30T22:38:53.785Z,88.80
2019-05-30T22:41:22.895Z,89.11
2019-05-30T22:43:52.943Z,88.93
2019-05-30T22:46:22.184Z,90.00
2019-05-30T22:48:51.231Z,89.79
2019-05-30T22:51:20.603Z,90.15
2019-05-30T22:53:50.947Z,90.85
2019-05-30T22:56:20.191Z,89.95
2019-05-30T22:58:50.173Z,90.07
2019-05-30T23:01:19.356Z,90.03
2019-05-30T23:03:49.150Z,89.71
2019-05-30T23:06:18.363Z,90.41
2019-05-30T23:08:48.497Z,90.09
2019-05-30T23:11:17.612Z,90.62
2019-05-30T23:13:47.846Z,89.85
2019-05-30T23:16:16.971Z,89.55
2019-05-30T23:18:46.421Z,89.71
2019-05-30T23:21:15.482Z,89.25
2019-05-30T23:23:44.561Z,90.53
2019-05-30T23:26:13.647Z,91.18
2019-05-30T23:28:42.694Z,91.33
2019-05-30T23:31:11.812Z,92.39
2019-05-30T23:33:40.811Z,92.13
2019-05-30T23:36:09.855Z,92.01
2019-05-30T23:38:38.883Z,91.78
2019-05-30T23:41:07.974Z,92.89
2019-05-30T23:43:37.009Z,93.19
2019-05-30T23:46:06.171Z,93.20
2019-05-30T23:48:35.219Z,93.27
2019-05-30T23:51:04.378Z,93.27
2019-05-30T23:53:33.410Z,93.59
2019-05-30T23:56:02.439Z,93.81
2019-05-30T23:58:31.511Z,92.81
